Weather at Holler Heliport

Public forecast

Using degrees Fahrenheit for public forecast. Weather courtesy of forecast.io.

Closest aviation weather report (METAR) to Holler Heliport

Closest report is Randolph Air Force Base, 17.6 nm (32.6 km) SSE. Retrieved 2020/10/19 22:56 UTC (17 minutes ago):

KRND 192256Z AUTO 19010KT 10SM CLR 32/18 A2991 RMK AO2 SLP120 T03190177

Closest aviation forecast (TAF) to Holler Heliport

Closest forecast is Randolph Air Force Base, 17.6 nm (32.6 km) SSE. Retrieved 2020/10/19 21:09 UTC (2 hours ago):

TAF KRND 192105Z 1921/2022 16010KT 9999 SCT040 QNH2990INS BECMG 2005/2006 15009KT 9999 OVC006 QNH2999INS BECMG 2009/2010 15008KT 4800 BR OVC003 QNH2997INS BECMG 2014/2015 16009KT 9999 NSW BKN015 QNH3003INS TX33/1921Z TN23/2012Z LAST NO AMDS AFT 1924 NEXT 2010